createdAt,value
2023-04-05T00:01:20.408Z,100082.54
2023-04-05T00:03:49.051Z,100080.05
2023-04-05T00:06:17.435Z,100073.71
2023-04-05T00:08:50.111Z,100070.20
2023-04-05T00:11:18.845Z,100069.52
2023-04-05T00:13:47.033Z,100067.61
2023-04-05T00:16:16.195Z,100064.33
2023-04-05T00:18:51.861Z,100063.16
2023-04-05T00:21:22.041Z,100061.23
2023-04-05T00:23:51.487Z,100063.02
2023-04-05T00:26:20.484Z,100064.44
2023-04-05T00:28:49.756Z,100064.28
2023-04-05T00:31:18.037Z,100064.84
2023-04-05T00:33:46.880Z,100064.34
2023-04-05T00:36:16.354Z,100061.88
2023-04-05T00:38:45.527Z,100056.61
2023-04-05T00:41:14.179Z,100058.03
2023-04-05T00:43:42.407Z,100052.57
2023-04-05T00:46:13.737Z,100055.55
2023-04-05T00:48:42.511Z,100052.90
2023-04-05T00:51:11.756Z,100053.77
2023-04-05T00:53:43.168Z,100054.31
2023-04-05T00:56:13.935Z,100058.38
2023-04-05T00:58:52.226Z,100065.29
2023-04-05T01:01:22.537Z,100072.19
2023-04-05T01:03:56.320Z,100072.36
2023-04-05T01:06:25.175Z,100068.64
2023-04-05T01:09:00.427Z,100061.23
2023-04-05T01:11:29.049Z,100058.92
2023-04-05T01:14:00.146Z,100059.47
2023-04-05T01:16:28.426Z,100055.45
2023-04-05T01:18:58.551Z,100045.42
2023-04-05T01:21:39.541Z,100041.58
2023-04-05T01:24:10.859Z,100039.83
2023-04-05T01:26:39.984Z,100036.31
2023-04-05T01:29:22.899Z,100037.20
2023-04-05T01:32:02.985Z,100032.45
2023-04-05T01:34:52.736Z,100033.21
2023-04-05T01:37:24.191Z,100039.61
2023-04-05T01:39:56.825Z,100038.95
2023-04-05T01:42:28.276Z,100036.17
2023-04-05T01:44:59.530Z,100029.84
2023-04-05T01:47:29.835Z,100032.46
2023-04-05T01:50:00.544Z,100029.96
2023-04-05T01:52:30.840Z,100029.23
2023-04-05T01:55:01.392Z,100036.27
2023-04-05T01:57:33.494Z,100026.40
2023-04-05T02:00:06.362Z,100026.91
2023-04-05T02:02:43.908Z,100030.06
2023-04-05T02:05:15.637Z,100012.80
2023-04-05T02:07:48.243Z,100012.08
2023-04-05T02:10:19.876Z,100003.77
2023-04-05T02:12:50.849Z,100003.23
2023-04-05T02:15:24.927Z,99992.14
2023-04-05T02:17:56.883Z,99990.20
2023-04-05T02:20:29.872Z,99988.84
2023-04-05T02:23:00.872Z,99989.73
2023-04-05T02:25:31.878Z,99996.82
2023-04-05T02:28:11.899Z,99995.25
2023-04-05T02:30:42.282Z,100006.35
2023-04-05T02:40:32.494Z,99989.02
2023-04-05T02:43:02.253Z,99988.55
2023-04-05T02:45:31.339Z,99989.27
2023-04-05T02:48:00.341Z,99979.06
2023-04-05T02:50:31.718Z,99978.55
2023-04-05T02:53:03.473Z,99977.16
2023-04-05T02:55:34.409Z,99972.61
2023-04-05T02:58:03.418Z,99976.52
2023-04-05T03:00:51.533Z,99979.52
2023-04-05T03:03:23.659Z,99973.74
2023-04-05T03:06:00.512Z,99980.09
2023-04-05T03:08:32.772Z,99973.06
2023-04-05T03:11:07.401Z,99975.36
2023-04-05T03:13:38.942Z,99969.92
2023-04-05T03:16:13.311Z,99970.30
2023-04-05T03:18:42.674Z,99977.53
2023-04-05T03:21:18.328Z,99960.48
2023-04-05T03:23:54.160Z,99962.24
2023-04-05T03:26:26.530Z,99970.85
2023-04-05T03:28:55.134Z,99959.06
2023-04-05T03:31:30.812Z,99958.19
2023-04-05T03:34:03.133Z,99949.92
2023-04-05T03:36:44.308Z,99945.70
2023-04-05T03:39:21.366Z,99939.71
2023-04-05T03:41:49.887Z,99933.02
2023-04-05T03:44:19.490Z,99930.19
2023-04-05T03:46:47.758Z,99925.42
2023-04-05T03:49:16.764Z,99930.16
2023-04-05T03:51:46.730Z,99925.73
2023-04-05T03:54:15.452Z,99922.73
2023-04-05T03:56:44.253Z,99915.48
2023-04-05T03:59:19.910Z,99912.64
2023-04-05T04:01:50.342Z,99918.05
2023-04-05T04:04:21.357Z,99907.77
2023-04-05T04:06:51.986Z,99904.50
2023-04-05T04:09:25.253Z,99901.75
2023-04-05T04:11:53.558Z,99903.06
2023-04-05T04:14:25.062Z,99903.65
2023-04-05T04:17:13.148Z,99896.79
2023-04-05T04:20:15.009Z,99892.75
2023-04-05T04:23:02.890Z,99891.04
2023-04-05T04:25:54.996Z,99878.88
2023-04-05T04:29:03.704Z,99877.52
2023-04-05T04:32:02.253Z,99867.29
2023-04-05T04:35:00.281Z,99869.53
2023-04-05T04:37:47.686Z,99870.90
2023-04-05T04:40:29.686Z,99868.45
2023-04-05T04:43:17.688Z,99867.77
2023-04-05T04:46:11.090Z,99863.20
2023-04-05T04:48:58.412Z,99861.46
2023-04-05T04:51:39.689Z,99855.81
2023-04-05T04:54:08.274Z,99850.60
2023-04-05T04:56:37.778Z,99852.70
2023-04-05T04:59:06.500Z,99846.53
2023-04-05T05:01:40.990Z,99842.23
2023-04-05T05:04:11.792Z,99843.83
2023-04-05T05:06:42.056Z,99839.73
2023-04-05T05:09:12.678Z,99836.11
2023-04-05T05:11:52.134Z,99834.40
2023-04-05T05:14:20.701Z,99837.55
2023-04-05T05:16:49.322Z,99829.91
2023-04-05T05:19:20.137Z,99836.90
2023-04-05T05:21:54.269Z,99839.69
2023-04-05T05:24:25.172Z,99851.14
2023-04-05T05:26:53.672Z,99849.52
2023-04-05T05:29:22.032Z,99859.64
2023-04-05T05:31:51.132Z,99850.43
2023-04-05T05:34:19.834Z,99856.71
2023-04-05T05:36:52.808Z,99855.19
2023-04-05T05:39:21.381Z,99842.83
2023-04-05T05:41:50.586Z,99836.60
2023-04-05T05:44:19.005Z,99834.46
2023-04-05T05:46:47.580Z,99826.66
2023-04-05T05:49:16.947Z,99828.17
2023-04-05T05:51:46.147Z,99828.26
2023-04-05T05:54:14.426Z,99831.46
2023-04-05T05:56:42.855Z,99827.46
2023-04-05T05:59:12.441Z,99825.77
2023-04-05T06:01:43.444Z,99820.85
2023-04-05T06:04:11.700Z,99822.51
2023-04-05T06:06:43.086Z,99822.47
2023-04-05T06:09:11.750Z,99823.30
2023-04-05T06:11:53.173Z,99831.02
2023-04-05T06:14:25.360Z,99836.63
2023-04-05T06:16:53.987Z,99832.26
2023-04-05T06:19:22.779Z,99834.16
2023-04-05T06:21:51.256Z,99834.88
2023-04-05T06:24:19.747Z,99822.48
2023-04-05T06:26:48.323Z,99818.59
2023-04-05T06:29:19.366Z,99818.88
2023-04-05T06:31:48.673Z,99811.77
2023-04-05T06:34:17.140Z,99814.36
2023-04-05T06:36:48.312Z,99803.20
2023-04-05T06:39:19.120Z,99799.30
2023-04-05T06:41:47.501Z,99795.25
2023-04-05T06:44:16.500Z,99796.63
2023-04-05T06:46:45.414Z,99796.48
2023-04-05T06:49:13.860Z,99800.00
2023-04-05T06:51:42.849Z,99802.77
2023-04-05T06:54:15.127Z,99800.07
2023-04-05T06:56:44.027Z,99798.13
2023-04-05T06:59:13.444Z,99803.86
2023-04-05T07:01:42.573Z,99798.00
2023-04-05T07:04:13.123Z,99803.88
2023-04-05T07:06:41.828Z,99794.71
2023-04-05T07:09:10.132Z,99790.93
2023-04-05T07:11:40.166Z,99798.68
2023-04-05T07:14:09.035Z,99796.72
2023-04-05T07:16:40.766Z,99789.38
2023-04-05T07:19:09.353Z,99790.63
2023-04-05T07:21:38.037Z,99778.34
2023-04-05T07:24:07.035Z,99786.08
2023-04-05T07:26:36.326Z,99776.64
2023-04-05T07:29:04.935Z,99773.93
2023-04-05T07:31:34.337Z,99779.15
2023-04-05T07:34:03.615Z,99776.91
2023-04-05T07:36:32.062Z,99772.23
2023-04-05T07:39:00.985Z,99765.98
2023-04-05T07:41:32.136Z,99766.21
2023-04-05T07:44:05.731Z,99772.30
2023-04-05T07:46:35.237Z,99770.89
2023-04-05T07:49:03.926Z,99773.66
2023-04-05T07:51:36.594Z,99767.41
2023-04-05T07:54:07.850Z,99760.28
2023-04-05T07:56:40.215Z,99752.78
2023-04-05T07:59:09.298Z,99748.17
2023-04-05T08:01:37.691Z,99749.85
2023-04-05T08:04:06.333Z,99752.52
2023-04-05T08:06:34.961Z,99756.15
2023-04-05T08:09:06.101Z,99760.09
2023-04-05T08:11:35.499Z,99753.92
2023-04-05T08:14:03.984Z,99752.30
2023-04-05T08:16:34.033Z,99746.04
2023-04-05T08:19:02.629Z,99747.95
2023-04-05T08:21:31.066Z,99728.16
2023-04-05T08:24:01.600Z,99731.75
2023-04-05T08:26:30.188Z,99726.03
2023-04-05T08:28:58.759Z,99720.95
2023-04-05T08:31:27.317Z,99721.08
2023-04-05T08:33:57.049Z,99726.67
2023-04-05T08:36:27.020Z,99721.95
2023-04-05T08:38:55.989Z,99723.86
2023-04-05T08:41:24.436Z,99727.52
2023-04-05T08:43:52.679Z,99724.60
2023-04-05T08:46:21.353Z,99718.27
2023-04-05T08:48:50.194Z,99724.24
2023-04-05T08:51:19.183Z,99719.02
2023-04-05T08:53:47.868Z,99723.00
2023-04-05T08:56:17.481Z,99716.72
2023-04-05T08:58:50.891Z,99707.17
2023-04-05T09:01:19.661Z,99706.24
2023-04-05T09:03:50.075Z,99703.66
2023-04-05T09:06:18.612Z,99706.80
2023-04-05T09:08:47.153Z,99720.66
2023-04-05T09:11:15.740Z,99729.27
2023-04-05T09:13:44.021Z,99713.52
2023-04-05T09:16:16.436Z,99717.08
2023-04-05T09:18:45.787Z,99707.52
2023-04-05T09:21:14.208Z,99701.14
2023-04-05T09:23:51.154Z,99705.42
2023-04-05T09:26:20.172Z,99708.95
2023-04-05T09:28:49.847Z,99711.90
2023-04-05T09:31:33.121Z,99724.98
2023-04-05T09:34:05.771Z,99722.59
2023-04-05T09:36:34.129Z,99723.55
2023-04-05T09:39:06.946Z,99727.21
2023-04-05T09:41:35.607Z,99736.20
2023-04-05T09:44:04.395Z,99721.50
2023-04-05T09:46:34.467Z,99728.65
2023-04-05T09:49:04.317Z,99729.72
2023-04-05T09:51:36.725Z,99734.82
2023-04-05T09:54:09.691Z,99759.98
2023-04-05T09:56:38.879Z,99756.56
2023-04-05T09:59:11.719Z,99764.16
2023-04-05T10:01:43.907Z,99757.92
2023-04-05T10:04:13.805Z,99750.34
2023-04-05T10:06:43.190Z,99754.99
2023-04-05T10:09:15.399Z,99747.04
2023-04-05T10:11:44.294Z,99746.98
2023-04-05T10:14:13.186Z,99753.76
2023-04-05T10:16:49.299Z,99753.73
2023-04-05T10:19:21.831Z,99736.71
2023-04-05T10:21:50.199Z,99740.30
2023-04-05T10:24:23.195Z,99736.35
2023-04-05T10:27:01.292Z,99736.13
2023-04-05T10:29:33.501Z,99727.07
2023-04-05T10:32:07.252Z,99723.66
2023-04-05T10:34:43.904Z,99719.91
2023-04-05T10:37:26.197Z,99717.73
2023-04-05T10:39:57.621Z,99709.56
2023-04-05T10:42:35.206Z,99706.27
2023-04-05T10:45:09.281Z,99718.81
2023-04-05T10:47:39.539Z,99726.64
2023-04-05T10:50:08.709Z,99710.21
2023-04-05T10:52:38.126Z,99720.67
2023-04-05T10:55:06.968Z,99715.08
2023-04-05T10:57:37.117Z,99710.48
2023-04-05T11:00:05.700Z,99704.25
2023-04-05T11:02:34.979Z,99709.35
2023-04-05T11:05:05.370Z,99715.23
2023-04-05T11:07:44.184Z,99708.17
2023-04-05T11:10:17.869Z,99718.65
2023-04-05T11:12:54.050Z,99707.77
2023-04-05T11:15:25.385Z,99691.71
2023-04-05T11:18:04.565Z,99680.61
2023-04-05T11:20:52.141Z,99680.25
2023-04-05T11:23:25.876Z,99671.64
2023-04-05T11:25:55.260Z,99670.54
2023-04-05T11:28:29.147Z,99666.91
2023-04-05T11:30:59.076Z,99652.30
2023-04-05T11:33:37.990Z,99648.31
2023-04-05T11:36:07.137Z,99639.33
2023-04-05T11:38:35.882Z,99635.63
2023-04-05T11:41:11.005Z,99639.77
2023-04-05T11:43:39.919Z,99636.36
2023-04-05T11:46:08.217Z,99631.41
2023-04-05T11:48:37.291Z,99627.34
2023-04-05T11:51:07.485Z,99626.48
2023-04-05T11:53:36.757Z,99634.65
2023-04-05T11:56:10.387Z,99628.21
2023-04-05T11:58:39.929Z,99622.11
2023-04-05T12:01:09.606Z,99627.44
2023-04-05T12:03:43.702Z,99622.60
2023-04-05T12:06:12.507Z,99631.78
2023-04-05T12:08:42.283Z,99630.30
2023-04-05T12:11:16.047Z,99633.29
2023-04-05T12:13:45.523Z,99637.19
2023-04-05T12:16:14.061Z,99641.05
2023-04-05T12:18:44.172Z,99640.48
2023-04-05T12:21:13.280Z,99652.64
2023-04-05T12:23:41.730Z,99643.80
2023-04-05T12:26:10.187Z,99643.52
2023-04-05T12:28:54.232Z,99651.86
2023-04-05T12:31:35.423Z,99653.70
2023-04-05T12:34:03.706Z,99660.34
2023-04-05T12:36:33.389Z,99659.83
2023-04-05T12:39:06.167Z,99665.98
2023-04-05T12:41:35.074Z,99668.48
2023-04-05T12:44:07.227Z,99669.41
2023-04-05T12:46:39.808Z,99661.51
2023-04-05T12:49:12.513Z,99663.05
2023-04-05T12:51:46.844Z,99667.75
2023-04-05T12:54:23.527Z,99661.50
2023-04-05T12:56:54.590Z,99659.91
2023-04-05T12:59:23.408Z,99653.13
2023-04-05T13:01:51.895Z,99647.51
2023-04-05T13:04:20.404Z,99649.12
2023-04-05T13:06:50.385Z,99645.48
2023-04-05T13:09:19.066Z,99649.73
2023-04-05T13:11:47.902Z,99644.30
2023-04-05T13:14:16.572Z,99636.55
2023-04-05T13:16:45.228Z,99631.83
2023-04-05T13:19:13.708Z,99630.47
2023-04-05T13:21:43.355Z,99628.10
2023-04-05T13:24:12.994Z,99628.05
2023-04-05T13:26:41.826Z,99629.13
2023-04-05T13:29:10.195Z,99632.15
2023-04-05T13:31:38.656Z,99628.77
2023-04-05T13:34:07.363Z,99623.59
2023-04-05T13:36:35.952Z,99623.05
2023-04-05T13:39:07.290Z,99624.13
2023-04-05T13:41:35.908Z,99623.30
2023-04-05T13:44:06.467Z,99622.26
2023-04-05T13:46:37.653Z,99623.72
2023-04-05T13:49:06.231Z,99619.14
2023-04-05T13:51:37.166Z,99627.36
2023-04-05T13:54:06.592Z,99636.38
2023-04-05T13:56:37.729Z,99646.04
2023-04-05T13:59:06.699Z,99651.52
2023-04-05T14:01:35.462Z,99660.10
2023-04-05T14:04:04.209Z,99656.85
2023-04-05T14:06:33.083Z,99659.80
2023-04-05T14:09:01.756Z,99666.48
2023-04-05T14:11:32.508Z,99677.38
2023-04-05T14:14:01.334Z,99688.85
2023-04-05T14:16:30.313Z,99685.77
2023-04-05T14:18:59.059Z,99681.71
2023-04-05T14:21:27.843Z,99686.26
2023-04-05T14:23:58.196Z,99684.11
2023-04-05T14:26:27.160Z,99682.58
2023-04-05T14:28:55.763Z,99689.59
2023-04-05T14:31:26.535Z,99691.89
2023-04-05T14:33:55.778Z,99698.41
2023-04-05T14:36:24.052Z,99697.94
2023-04-05T14:38:56.838Z,99687.59
2023-04-05T14:41:27.486Z,99692.70
2023-04-05T14:43:57.082Z,99696.73
2023-04-05T14:46:25.444Z,99699.64
2023-04-05T14:48:54.260Z,99702.98
2023-04-05T14:51:22.742Z,99700.86
2023-04-05T14:53:51.628Z,99700.96
2023-04-05T14:56:24.703Z,99709.54
2023-04-05T14:58:53.124Z,99706.35
2023-04-05T15:01:21.572Z,99710.94
2023-04-05T15:03:52.101Z,99706.10
2023-04-05T15:06:22.339Z,99710.20
2023-04-05T15:08:51.815Z,99714.30
2023-04-05T15:11:20.091Z,99719.13
2023-04-05T15:13:49.699Z,99713.88
2023-04-05T15:16:18.513Z,99715.19
2023-04-05T15:18:51.309Z,99712.00
2023-04-05T15:21:20.281Z,99714.84
2023-04-05T15:23:48.851Z,99712.43
2023-04-05T15:26:17.429Z,99713.41
2023-04-05T15:28:46.112Z,99716.20
2023-04-05T15:31:15.020Z,99715.02
2023-04-05T15:33:43.377Z,99720.09
2023-04-05T15:36:13.246Z,99721.64
2023-04-05T15:38:42.401Z,99723.73
2023-04-05T15:41:10.662Z,99718.58
2023-04-05T15:43:39.756Z,99722.79
2023-04-05T15:46:09.110Z,99725.13
2023-04-05T15:48:38.180Z,99726.17
2023-04-05T15:51:07.820Z,99726.80
2023-04-05T15:53:36.652Z,99717.69
2023-04-05T15:56:05.553Z,99719.52
2023-04-05T15:58:33.713Z,99729.52
2023-04-05T16:01:02.239Z,99726.21
2023-04-05T16:03:32.633Z,99730.70
2023-04-05T16:06:01.746Z,99738.50
2023-04-05T16:08:33.582Z,99738.87
2023-04-05T16:11:02.372Z,99736.23
2023-04-05T16:13:32.176Z,99738.02
2023-04-05T16:16:02.071Z,99739.12
2023-04-05T16:18:32.006Z,99743.23
2023-04-05T16:21:05.718Z,99739.10
2023-04-05T16:23:34.851Z,99739.70
2023-04-05T16:26:05.441Z,99739.23
2023-04-05T16:28:34.383Z,99741.44
2023-04-05T16:31:03.085Z,99738.70
2023-04-05T16:33:32.658Z,99735.21
2023-04-05T16:36:03.694Z,99731.38
2023-04-05T16:38:32.552Z,99733.04
2023-04-05T16:41:01.394Z,99726.55
2023-04-05T16:43:31.564Z,99732.80
2023-04-05T16:46:00.683Z,99730.71
2023-04-05T16:48:31.080Z,99734.29
2023-04-05T16:51:00.041Z,99731.67
2023-04-05T16:53:31.020Z,99725.90
2023-04-05T16:55:59.808Z,99723.27
2023-04-05T16:58:30.051Z,99723.15
2023-04-05T17:01:00.606Z,99720.91
2023-04-05T17:03:31.220Z,99718.48
2023-04-05T17:06:02.025Z,99728.08
2023-04-05T17:08:31.425Z,99726.50
2023-04-05T17:11:00.736Z,99725.06
2023-04-05T17:13:29.837Z,99727.17
2023-04-05T17:15:58.322Z,99731.93
2023-04-05T17:18:27.495Z,99733.88
2023-04-05T17:20:57.115Z,99744.33
2023-04-05T17:23:26.195Z,99749.08
2023-04-05T17:25:54.828Z,99758.94
2023-04-05T17:28:23.669Z,99763.71
2023-04-05T17:30:54.187Z,99769.75
2023-04-05T17:33:27.903Z,99771.34
2023-04-05T17:35:58.857Z,99769.36
2023-04-05T17:38:28.039Z,99778.17
2023-04-05T17:40:58.059Z,99779.05
2023-04-05T17:43:27.197Z,99780.27
2023-04-05T17:45:55.660Z,99787.34
2023-04-05T17:48:24.457Z,99790.86
2023-04-05T17:50:53.316Z,99789.27
2023-04-05T17:53:23.622Z,99792.31
2023-04-05T17:55:52.525Z,99783.48
2023-04-05T17:58:22.958Z,99791.23
2023-04-05T18:00:53.996Z,99789.09
2023-04-05T18:03:23.468Z,99789.10
2023-04-05T18:05:55.357Z,99786.44
2023-04-05T18:08:27.125Z,99790.27
2023-04-05T18:10:56.852Z,99793.73
2023-04-05T18:13:26.891Z,99789.83
2023-04-05T18:16:00.333Z,99793.17
2023-04-05T18:18:30.773Z,99787.29
2023-04-05T18:21:02.150Z,99789.20
2023-04-05T18:23:31.931Z,99789.92
2023-04-05T18:26:04.636Z,99790.84
2023-04-05T18:28:34.016Z,99783.60
2023-04-05T18:31:03.823Z,99794.75
2023-04-05T18:33:33.952Z,99792.48
2023-04-05T18:36:03.185Z,99789.86
2023-04-05T18:38:32.833Z,99795.71
2023-04-05T18:41:02.485Z,99798.02
2023-04-05T18:43:32.317Z,99793.06
2023-04-05T18:46:02.611Z,99787.58
2023-04-05T18:48:32.095Z,99788.23
2023-04-05T18:51:01.397Z,99791.00
2023-04-05T18:53:32.640Z,99790.42
2023-04-05T18:56:01.142Z,99785.29
2023-04-05T18:58:30.740Z,99782.45
2023-04-05T19:01:04.299Z,99787.77
2023-04-05T19:03:33.584Z,99793.20
2023-04-05T19:06:02.228Z,99787.20
2023-04-05T19:08:31.524Z,99787.25
2023-04-05T19:11:00.719Z,99783.58
2023-04-05T19:13:29.324Z,99783.42
2023-04-05T19:16:00.665Z,99781.45
2023-04-05T19:18:30.262Z,99783.41
2023-04-05T19:21:00.883Z,99781.10
2023-04-05T19:23:30.124Z,99778.09
2023-04-05T19:25:58.492Z,99777.34
2023-04-05T19:28:29.672Z,99780.11
2023-04-05T19:31:00.024Z,99780.96
2023-04-05T19:33:31.987Z,99778.14
2023-04-05T19:36:02.384Z,99774.92
2023-04-05T19:38:31.646Z,99775.23
2023-04-05T19:41:03.590Z,99776.09
2023-04-05T19:43:34.000Z,99768.45
2023-04-05T19:46:03.287Z,99764.55
2023-04-05T19:48:32.195Z,99764.03
2023-04-05T19:51:03.746Z,99767.39
2023-04-05T19:53:50.856Z,99765.02
2023-04-05T19:56:21.200Z,99768.05
2023-04-05T19:58:50.493Z,99757.25
2023-04-05T20:01:36.180Z,99772.45
2023-04-05T20:04:12.148Z,99776.84
2023-04-05T20:06:42.617Z,99779.81
2023-04-05T20:09:13.647Z,99779.80
2023-04-05T20:11:42.652Z,99776.42
2023-04-05T20:14:11.301Z,99774.05
2023-04-05T20:16:40.558Z,99772.89
2023-04-05T20:19:10.103Z,99774.20
2023-04-05T20:21:40.515Z,99775.02
2023-04-05T20:24:09.161Z,99778.04
2023-04-05T20:26:37.803Z,99775.40
2023-04-05T20:29:07.576Z,99771.28
2023-04-05T20:31:39.010Z,99769.66
2023-04-05T20:34:15.389Z,99766.80
2023-04-05T20:36:45.454Z,99770.84
2023-04-05T20:39:14.949Z,99772.63
2023-04-05T20:41:43.820Z,99771.24
2023-04-05T20:44:16.011Z,99773.39
2023-04-05T20:46:45.040Z,99775.69
2023-04-05T20:49:13.368Z,99775.15
2023-04-05T20:51:43.255Z,99774.27
2023-04-05T20:54:12.342Z,99774.27
2023-04-05T20:56:43.698Z,99771.30
2023-04-05T20:59:12.331Z,99771.27
2023-04-05T21:01:42.212Z,99777.79
2023-04-05T21:04:10.930Z,99770.30
2023-04-05T21:06:39.898Z,99771.89
2023-04-05T21:09:08.315Z,99769.61
2023-04-05T21:11:38.530Z,99769.42
2023-04-05T21:14:07.334Z,99776.13
2023-04-05T21:16:35.831Z,99780.33
2023-04-05T21:19:03.959Z,99779.42
2023-04-05T21:21:32.684Z,99779.61
2023-04-05T21:24:01.127Z,99778.55
2023-04-05T21:26:29.654Z,99777.31
2023-04-05T21:28:59.321Z,99774.85
2023-04-05T21:31:27.551Z,99769.73
2023-04-05T21:33:55.754Z,99769.22
2023-04-05T21:36:26.848Z,99769.98
2023-04-05T21:38:55.422Z,99773.52
2023-04-05T21:41:23.867Z,99775.11
2023-04-05T21:43:53.951Z,99776.71
2023-04-05T21:46:22.729Z,99780.44
2023-04-05T21:48:50.956Z,99781.70
2023-04-05T21:51:19.099Z,99782.41
2023-04-05T21:53:48.201Z,99783.86
2023-04-05T21:56:20.560Z,99783.35
2023-04-05T21:58:49.033Z,99784.23
2023-04-05T22:01:17.243Z,99787.92
2023-04-05T22:03:46.359Z,99789.52
2023-04-05T22:06:15.999Z,99792.55
2023-04-05T22:08:44.412Z,99782.45
2023-04-05T22:11:12.865Z,99786.31
2023-04-05T22:13:41.981Z,99784.70
2023-04-05T22:16:10.451Z,99781.84
2023-04-05T22:18:38.689Z,99781.29
2023-04-05T22:21:07.115Z,99777.91
2023-04-05T22:23:35.327Z,99769.98
2023-04-05T22:26:03.455Z,99771.95
2023-04-05T22:28:31.894Z,99769.47
2023-04-05T22:31:00.276Z,99774.65
2023-04-05T22:33:29.619Z,99770.41
2023-04-05T22:35:57.905Z,99772.73
2023-04-05T22:38:27.381Z,99775.57
2023-04-05T22:40:56.168Z,99779.65
2023-04-05T22:43:24.381Z,99781.63
2023-04-05T22:45:52.820Z,99780.25
2023-04-05T22:48:21.821Z,99782.27
2023-04-05T22:50:50.012Z,99785.86
2023-04-05T22:53:19.278Z,99788.54
2023-04-05T22:55:47.964Z,99789.25
2023-04-05T22:58:17.528Z,99793.30
2023-04-05T23:00:46.135Z,99791.00
2023-04-05T23:03:19.365Z,99790.63
2023-04-05T23:05:49.005Z,99790.45
2023-04-05T23:08:17.235Z,99787.83
2023-04-05T23:10:45.844Z,99787.33
2023-04-05T23:13:15.396Z,99794.77
2023-04-05T23:15:44.072Z,99791.17
2023-04-05T23:18:13.244Z,99803.74
2023-04-05T23:20:41.670Z,99803.25
2023-04-05T23:23:09.795Z,99812.45
2023-04-05T23:25:40.964Z,99809.97
2023-04-05T23:28:09.701Z,99811.90
2023-04-05T23:30:39.718Z,99811.38
2023-04-05T23:33:08.871Z,99805.35
2023-04-05T23:35:41.602Z,99805.40
2023-04-05T23:38:09.872Z,99796.61
2023-04-05T23:40:38.021Z,99790.83
2023-04-05T23:43:06.477Z,99788.91
2023-04-05T23:45:34.877Z,99797.25
2023-04-05T23:48:05.375Z,99797.51
2023-04-05T23:50:33.560Z,99797.11
2023-04-05T23:53:03.002Z,99796.52
2023-04-05T23:55:32.784Z,99803.84
2023-04-05T23:58:01.507Z,99809.54
